sensor_id;sensor_type;location;lat;lon;timestamp;noise_LAeq;noise_LA_min;noise_LA_max;noise_LA01;noise_LA95
59284;Laerm;45056;47.602;9.886;2024-01-30T00:00:24;43.84;35.94;57.80;;
59284;Laerm;45056;47.602;9.886;2024-01-30T00:02:54;39.94;36.20;43.81;;
59284;Laerm;45056;47.602;9.886;2024-01-30T00:05:22;39.71;36.45;42.29;;
59284;Laerm;45056;47.602;9.886;2024-01-30T00:07:50;39.71;35.66;43.24;;
59284;Laerm;45056;47.602;9.886;2024-01-30T00:10:18;44.78;36.34;63.30;;
59284;Laerm;45056;47.602;9.886;2024-01-30T00:12:47;40.09;36.20;42.59;;
59284;Laerm;45056;47.602;9.886;2024-01-30T00:15:15;40.59;36.45;55.91;;
59284;Laerm;45056;47.602;9.886;2024-01-30T00:17:43;39.42;36.20;41.61;;
59284;Laerm;45056;47.602;9.886;2024-01-30T00:20:12;40.05;36.45;45.60;;
59284;Laerm;45056;47.602;9.886;2024-01-30T00:22:40;39.50;36.10;43.24;;
59284;Laerm;45056;47.602;9.886;2024-01-30T00:25:08;42.60;36.91;55.04;;
59284;Laerm;45056;47.602;9.886;2024-01-30T00:27:36;40.11;36.69;43.58;;
59284;Laerm;45056;47.602;9.886;2024-01-30T00:30:06;41.93;36.45;59.03;;
59284;Laerm;45056;47.602;9.886;2024-01-30T00:32:34;39.49;36.20;48.18;;
59284;Laerm;45056;47.602;9.886;2024-01-30T00:35:02;41.51;36.69;56.18;;
59284;Laerm;45056;47.602;9.886;2024-01-30T00:37:32;39.55;36.20;41.89;;
59284;Laerm;45056;47.602;9.886;2024-01-30T00:40:00;39.22;35.94;41.96;;
59284;Laerm;45056;47.602;9.886;2024-01-30T00:42:28;39.22;35.94;42.22;;
59284;Laerm;45056;47.602;9.886;2024-01-30T00:44:56;39.53;35.94;41.82;;
59284;Laerm;45056;47.602;9.886;2024-01-30T00:47:24;42.96;36.69;58.00;;
59284;Laerm;45056;47.602;9.886;2024-01-30T00:49:52;41.37;37.32;54.23;;
59284;Laerm;45056;47.602;9.886;2024-01-30T00:52:20;40.70;36.91;50.63;;
59284;Laerm;45056;47.602;9.886;2024-01-30T00:54:49;40.45;36.69;45.01;;
59284;Laerm;45056;47.602;9.886;2024-01-30T00:57:17;40.53;37.12;42.53;;
59284;Laerm;45056;47.602;9.886;2024-01-30T00:59:45;40.43;37.52;42.88;;
59284;Laerm;45056;47.602;9.886;2024-01-30T01:02:13;46.32;35.94;61.70;;
59284;Laerm;45056;47.602;9.886;2024-01-30T01:04:44;39.16;35.94;41.38;;
59284;Laerm;45056;47.602;9.886;2024-01-30T01:07:12;39.12;35.36;41.46;;
59284;Laerm;45056;47.602;9.886;2024-01-30T01:09:40;39.81;36.91;41.89;;
59284;Laerm;45056;47.602;9.886;2024-01-30T01:12:10;40.09;36.20;43.63;;
59284;Laerm;45056;47.602;9.886;2024-01-30T01:14:38;40.81;36.69;43.72;;
59284;Laerm;45056;47.602;9.886;2024-01-30T01:17:06;40.78;36.20;57.99;;
59284;Laerm;45056;47.602;9.886;2024-01-30T01:19:34;39.64;36.91;41.96;;
59284;Laerm;45056;47.602;9.886;2024-01-30T01:22:02;39.59;36.45;42.22;;
59284;Laerm;45056;47.602;9.886;2024-01-30T01:24:31;40.70;36.91;43.19;;
59284;Laerm;45056;47.602;9.886;2024-01-30T01:26:59;39.45;34.31;42.53;;
59284;Laerm;45056;47.602;9.886;2024-01-30T01:29:29;38.92;35.36;41.96;;
59284;Laerm;45056;47.602;9.886;2024-01-30T01:31:57;42.26;35.94;56.53;;
59284;Laerm;45056;47.602;9.886;2024-01-30T01:34:25;39.07;35.66;41.61;;
59284;Laerm;45056;47.602;9.886;2024-01-30T01:36:53;38.94;35.66;41.14;;
59284;Laerm;45056;47.602;9.886;2024-01-30T01:39:22;39.32;36.10;42.93;;
59284;Laerm;45056;47.602;9.886;2024-01-30T01:41:51;39.03;35.86;41.30;;
59284;Laerm;45056;47.602;9.886;2024-01-30T01:44:19;39.72;36.69;43.54;;
59284;Laerm;45056;47.602;9.886;2024-01-30T01:46:48;42.13;35.36;57.27;;
59284;Laerm;45056;47.602;9.886;2024-01-30T01:49:16;39.06;35.36;41.96;;
59284;Laerm;45056;47.602;9.886;2024-01-30T01:51:48;40.51;37.12;53.79;;
59284;Laerm;45056;47.602;9.886;2024-01-30T01:54:17;40.26;37.12;42.65;;
59284;Laerm;45056;47.602;9.886;2024-01-30T01:56:46;39.63;36.45;42.22;;
59284;Laerm;45056;47.602;9.886;2024-01-30T01:59:15;39.38;36.45;41.53;;
59284;Laerm;45056;47.602;9.886;2024-01-30T02:01:44;45.83;37.32;59.65;;
59284;Laerm;45056;47.602;9.886;2024-01-30T02:04:17;39.85;36.45;42.16;;
59284;Laerm;45056;47.602;9.886;2024-01-30T02:06:45;39.73;36.20;42.22;;
59284;Laerm;45056;47.602;9.886;2024-01-30T02:09:13;43.25;36.45;59.18;;
59284;Laerm;45056;47.602;9.886;2024-01-30T02:11:42;42.56;36.45;55.19;;
59284;Laerm;45056;47.602;9.886;2024-01-30T02:14:10;39.74;36.69;41.89;;
59284;Laerm;45056;47.602;9.886;2024-01-30T02:16:38;40.90;36.91;56.10;;
59284;Laerm;45056;47.602;9.886;2024-01-30T02:19:06;40.41;36.45;43.58;;
59284;Laerm;45056;47.602;9.886;2024-01-30T02:21:35;39.12;34.69;42.35;;
59284;Laerm;45056;47.602;9.886;2024-01-30T02:24:05;39.42;35.66;42.53;;
59284;Laerm;45056;47.602;9.886;2024-01-30T02:26:33;41.63;36.69;46.57;;
59284;Laerm;45056;47.602;9.886;2024-01-30T02:29:01;41.20;36.69;52.32;;
59284;Laerm;45056;47.602;9.886;2024-01-30T02:31:29;42.05;36.20;55.92;;
59284;Laerm;45056;47.602;9.886;2024-01-30T02:33:57;40.81;36.91;45.39;;
59284;Laerm;45056;47.602;9.886;2024-01-30T02:36:25;39.70;36.56;43.29;;
59284;Laerm;45056;47.602;9.886;2024-01-30T02:38:55;40.25;36.20;44.80;;
59284;Laerm;45056;47.602;9.886;2024-01-30T02:41:22;38.87;35.66;40.98;;
59284;Laerm;45056;47.602;9.886;2024-01-30T02:43:50;39.58;35.94;42.53;;
59284;Laerm;45056;47.602;9.886;2024-01-30T02:46:19;42.57;36.20;57.86;;
59284;Laerm;45056;47.602;9.886;2024-01-30T02:48:47;39.85;35.36;42.71;;
59284;Laerm;45056;47.602;9.886;2024-01-30T02:51:14;40.80;36.45;45.97;;
59284;Laerm;45056;47.602;9.886;2024-01-30T02:53:42;42.26;35.66;56.91;;
59284;Laerm;45056;47.602;9.886;2024-01-30T02:56:12;44.46;35.66;60.61;;
59284;Laerm;45056;47.602;9.886;2024-01-30T02:58:40;40.81;36.91;45.63;;
59284;Laerm;45056;47.602;9.886;2024-01-30T03:01:08;46.23;35.94;57.41;;
59284;Laerm;45056;47.602;9.886;2024-01-30T03:03:38;39.24;35.94;44.31;;
59284;Laerm;45056;47.602;9.886;2024-01-30T03:06:07;39.91;36.20;43.29;;
59284;Laerm;45056;47.602;9.886;2024-01-30T03:08:35;39.61;36.20;43.44;;
59284;Laerm;45056;47.602;9.886;2024-01-30T03:11:04;39.59;35.36;43.24;;
59284;Laerm;45056;47.602;9.886;2024-01-30T03:13:33;40.50;36.91;43.39;;
59284;Laerm;45056;47.602;9.886;2024-01-30T03:16:01;43.11;37.12;55.88;;
59284;Laerm;45056;47.602;9.886;2024-01-30T03:18:29;39.69;36.20;43.09;;
59284;Laerm;45056;47.602;9.886;2024-01-30T03:20:57;40.79;36.45;55.13;;
59284;Laerm;45056;47.602;9.886;2024-01-30T03:23:25;39.87;35.04;46.48;;
59284;Laerm;45056;47.602;9.886;2024-01-30T03:25:53;41.63;36.20;53.69;;
59284;Laerm;45056;47.602;9.886;2024-01-30T03:28:21;43.52;36.45;57.88;;
59284;Laerm;45056;47.602;9.886;2024-01-30T03:30:50;44.31;36.91;57.40;;
59284;Laerm;45056;47.602;9.886;2024-01-30T03:33:18;41.98;35.94;53.47;;
59284;Laerm;45056;47.602;9.886;2024-01-30T03:35:46;41.94;37.52;49.36;;
59284;Laerm;45056;47.602;9.886;2024-01-30T03:38:14;40.89;38.21;42.93;;
59284;Laerm;45056;47.602;9.886;2024-01-30T03:40:42;44.04;39.21;58.69;;
59284;Laerm;45056;47.602;9.886;2024-01-30T03:43:10;42.50;37.88;53.15;;
59284;Laerm;45056;47.602;9.886;2024-01-30T03:45:47;42.89;37.32;57.68;;
59284;Laerm;45056;47.602;9.886;2024-01-30T03:48:15;47.84;37.12;65.59;;
59284;Laerm;45056;47.602;9.886;2024-01-30T03:50:43;43.12;37.88;54.52;;
59284;Laerm;45056;47.602;9.886;2024-01-30T03:53:11;40.98;36.91;43.77;;
59284;Laerm;45056;47.602;9.886;2024-01-30T03:55:39;43.64;38.95;55.00;;
59284;Laerm;45056;47.602;9.886;2024-01-30T03:58:07;42.93;38.67;55.31;;
59284;Laerm;45056;47.602;9.886;2024-01-30T04:00:35;46.82;37.52;58.02;;
59284;Laerm;45056;47.602;9.886;2024-01-30T04:03:05;43.08;37.70;54.56;;
59284;Laerm;45056;47.602;9.886;2024-01-30T04:05:33;44.51;38.67;57.01;;
59284;Laerm;45056;47.602;9.886;2024-01-30T04:08:01;43.36;38.81;55.22;;
59284;Laerm;45056;47.602;9.886;2024-01-30T04:10:29;45.74;40.13;56.87;;
59284;Laerm;45056;47.602;9.886;2024-01-30T04:12:57;42.90;39.34;48.31;;
59284;Laerm;45056;47.602;9.886;2024-01-30T04:15:26;44.23;38.67;57.01;;
59284;Laerm;45056;47.602;9.886;2024-01-30T04:17:57;42.66;38.81;55.54;;
59284;Laerm;45056;47.602;9.886;2024-01-30T04:20:27;44.61;38.81;56.35;;
59284;Laerm;45056;47.602;9.886;2024-01-30T04:22:55;43.14;38.81;53.33;;
59284;Laerm;45056;47.602;9.886;2024-01-30T04:25:23;47.41;39.70;62.60;;
59284;Laerm;45056;47.602;9.886;2024-01-30T04:27:51;43.46;37.52;55.50;;
59284;Laerm;45056;47.602;9.886;2024-01-30T04:30:19;47.49;38.95;62.26;;
59284;Laerm;45056;47.602;9.886;2024-01-30T04:32:47;44.19;39.21;56.67;;
59284;Laerm;45056;47.602;9.886;2024-01-30T04:35:15;46.05;39.81;57.09;;
59284;Laerm;45056;47.602;9.886;2024-01-30T04:37:45;47.19;39.46;60.83;;
59284;Laerm;45056;47.602;9.886;2024-01-30T04:40:13;45.15;40.43;56.99;;
59284;Laerm;45056;47.602;9.886;2024-01-30T04:42:41;48.25;40.89;61.07;;
59284;Laerm;45056;47.602;9.886;2024-01-30T04:45:09;46.60;41.30;56.00;;
59284;Laerm;45056;47.602;9.886;2024-01-30T04:47:37;47.04;40.13;59.53;;
59284;Laerm;45056;47.602;9.886;2024-01-30T04:50:07;47.25;41.06;57.62;;
59284;Laerm;45056;47.602;9.886;2024-01-30T04:52:36;49.01;40.79;64.36;;
59284;Laerm;45056;47.602;9.886;2024-01-30T04:55:07;44.86;40.53;54.93;;
59284;Laerm;45056;47.602;9.886;2024-01-30T04:57:35;46.23;39.81;59.07;;
59284;Laerm;45056;47.602;9.886;2024-01-30T05:00:04;47.15;39.08;60.22;;
59284;Laerm;45056;47.602;9.886;2024-01-30T05:02:32;49.76;39.81;62.77;;
59284;Laerm;45056;47.602;9.886;2024-01-30T05:05:01;57.54;41.30;72.20;;
59284;Laerm;45056;47.602;9.886;2024-01-30T05:07:29;47.10;40.53;59.97;;
59284;Laerm;45056;47.602;9.886;2024-01-30T05:09:57;43.85;39.70;55.33;;
59284;Laerm;45056;47.602;9.886;2024-01-30T05:12:27;44.98;41.19;57.29;;
59284;Laerm;45056;47.602;9.886;2024-01-30T05:14:55;45.25;39.78;57.60;;
59284;Laerm;45056;47.602;9.886;2024-01-30T05:17:23;44.50;40.13;55.58;;
59284;Laerm;45056;47.602;9.886;2024-01-30T05:19:51;45.78;39.89;59.69;;
59284;Laerm;45056;47.602;9.886;2024-01-30T05:22:19;47.86;40.98;63.38;;
59284;Laerm;45056;47.602;9.886;2024-01-30T05:24:47;46.15;40.13;57.11;;
59284;Laerm;45056;47.602;9.886;2024-01-30T05:27:15;46.73;40.43;59.70;;
59284;Laerm;45056;47.602;9.886;2024-01-30T05:29:44;46.30;40.80;59.46;;
59284;Laerm;45056;47.602;9.886;2024-01-30T05:32:12;46.75;40.53;61.06;;
59284;Laerm;45056;47.602;9.886;2024-01-30T05:34:40;48.21;41.14;62.10;;
59284;Laerm;45056;47.602;9.886;2024-01-30T05:37:08;47.59;40.71;57.16;;
59284;Laerm;45056;47.602;9.886;2024-01-30T05:39:40;49.04;41.82;58.94;;
59284;Laerm;45056;47.602;9.886;2024-01-30T05:42:08;44.78;39.81;56.05;;
59284;Laerm;45056;47.602;9.886;2024-01-30T05:44:36;44.55;39.34;56.46;;
59284;Laerm;45056;47.602;9.886;2024-01-30T05:47:06;46.40;41.22;62.14;;
59284;Laerm;45056;47.602;9.886;2024-01-30T05:49:34;48.60;41.11;59.01;;
59284;Laerm;45056;47.602;9.886;2024-01-30T05:52:04;46.87;41.38;60.38;;
59284;Laerm;45056;47.602;9.886;2024-01-30T05:54:32;47.93;42.09;58.40;;
59284;Laerm;45056;47.602;9.886;2024-01-30T05:57:01;46.44;40.89;59.83;;
59284;Laerm;45056;47.602;9.886;2024-01-30T05:59:29;47.76;41.06;57.86;;
59284;Laerm;45056;47.602;9.886;2024-01-30T06:01:57;48.62;40.98;57.79;;
59284;Laerm;45056;47.602;9.886;2024-01-30T06:04:26;48.10;41.06;58.94;;
59284;Laerm;45056;47.602;9.886;2024-01-30T06:06:54;46.93;41.06;58.74;;
59284;Laerm;45056;47.602;9.886;2024-01-30T06:09:22;47.60;41.38;56.04;;
59284;Laerm;45056;47.602;9.886;2024-01-30T06:11:50;47.53;41.61;55.39;;
59284;Laerm;45056;47.602;9.886;2024-01-30T06:14:18;46.79;41.75;56.34;;
59284;Laerm;45056;47.602;9.886;2024-01-30T06:16:46;46.56;40.71;58.12;;
59284;Laerm;45056;47.602;9.886;2024-01-30T06:19:14;47.90;41.75;58.72;;
59284;Laerm;45056;47.602;9.886;2024-01-30T06:21:44;48.71;41.68;61.68;;
59284;Laerm;45056;47.602;9.886;2024-01-30T06:24:12;47.91;41.89;59.42;;
59284;Laerm;45056;47.602;9.886;2024-01-30T06:26:40;48.06;42.22;57.03;;
59284;Laerm;45056;47.602;9.886;2024-01-30T06:29:09;47.12;42.16;58.31;;
59284;Laerm;45056;47.602;9.886;2024-01-30T06:31:40;48.66;42.65;57.95;;
59284;Laerm;45056;47.602;9.886;2024-01-30T06:34:09;49.52;43.44;61.29;;
59284;Laerm;45056;47.602;9.886;2024-01-30T06:36:39;47.97;42.53;59.18;;
59284;Laerm;45056;47.602;9.886;2024-01-30T06:39:08;49.65;42.53;61.11;;
59284;Laerm;45056;47.602;9.886;2024-01-30T06:41:36;48.86;42.82;59.27;;
59284;Laerm;45056;47.602;9.886;2024-01-30T06:44:04;49.59;42.71;61.61;;
59284;Laerm;45056;47.602;9.886;2024-01-30T06:46:33;49.37;43.44;57.76;;
59284;Laerm;45056;47.602;9.886;2024-01-30T06:49:01;50.29;43.81;60.86;;
59284;Laerm;45056;47.602;9.886;2024-01-30T06:51:29;49.11;43.29;56.18;;
59284;Laerm;45056;47.602;9.886;2024-01-30T06:53:57;48.18;42.69;57.05;;
59284;Laerm;45056;47.602;9.886;2024-01-30T06:56:26;51.95;42.82;66.32;;
59284;Laerm;45056;47.602;9.886;2024-01-30T06:58:54;47.27;42.09;57.44;;
59284;Laerm;45056;47.602;9.886;2024-01-30T07:01:28;51.49;42.47;62.06;;
59284;Laerm;45056;47.602;9.886;2024-01-30T07:03:57;47.78;41.46;55.75;;
59284;Laerm;45056;47.602;9.886;2024-01-30T07:06:25;47.76;42.16;56.15;;
59284;Laerm;45056;47.602;9.886;2024-01-30T07:08:53;47.37;41.46;56.41;;
59284;Laerm;45056;47.602;9.886;2024-01-30T07:11:22;46.38;40.98;55.16;;
59284;Laerm;45056;47.602;9.886;2024-01-30T07:13:52;49.00;42.93;58.54;;
59284;Laerm;45056;47.602;9.886;2024-01-30T07:16:20;49.23;42.47;59.89;;
59284;Laerm;45056;47.602;9.886;2024-01-30T07:18:49;47.89;41.61;59.44;;
59284;Laerm;45056;47.602;9.886;2024-01-30T07:21:17;46.79;42.03;61.08;;
59284;Laerm;45056;47.602;9.886;2024-01-30T07:23:45;48.31;41.89;57.80;;
59284;Laerm;45056;47.602;9.886;2024-01-30T07:26:13;47.95;41.82;62.48;;
59284;Laerm;45056;47.602;9.886;2024-01-30T07:28:41;47.43;41.14;59.62;;
59284;Laerm;45056;47.602;9.886;2024-01-30T07:31:12;50.70;41.53;65.90;;
59284;Laerm;45056;47.602;9.886;2024-01-30T07:33:40;48.63;43.39;61.44;;
59284;Laerm;45056;47.602;9.886;2024-01-30T07:36:08;55.45;42.59;75.09;;
59284;Laerm;45056;47.602;9.886;2024-01-30T07:38:37;52.31;41.68;75.46;;
59284;Laerm;45056;47.602;9.886;2024-01-30T07:41:05;47.96;41.14;61.08;;
59284;Laerm;45056;47.602;9.886;2024-01-30T07:43:33;51.87;41.22;68.20;;
59284;Laerm;45056;47.602;9.886;2024-01-30T07:46:02;49.94;41.89;65.14;;
59284;Laerm;45056;47.602;9.886;2024-01-30T07:48:32;48.65;42.53;64.57;;
59284;Laerm;45056;47.602;9.886;2024-01-30T07:51:00;49.05;42.53;62.72;;
59284;Laerm;45056;47.602;9.886;2024-01-30T07:53:29;48.24;43.14;59.57;;
59284;Laerm;45056;47.602;9.886;2024-01-30T07:55:57;46.53;41.89;57.12;;
59284;Laerm;45056;47.602;9.886;2024-01-30T07:58:25;46.44;41.38;56.58;;
59284;Laerm;45056;47.602;9.886;2024-01-30T08:00:54;49.08;41.61;57.51;;
59284;Laerm;45056;47.602;9.886;2024-01-30T08:03:24;48.66;41.89;60.70;;
59284;Laerm;45056;47.602;9.886;2024-01-30T08:05:54;46.01;41.68;55.00;;
59284;Laerm;45056;47.602;9.886;2024-01-30T08:08:22;47.28;40.23;58.24;;
59284;Laerm;45056;47.602;9.886;2024-01-30T08:10:50;47.67;41.38;57.09;;
59284;Laerm;45056;47.602;9.886;2024-01-30T08:13:18;56.25;42.24;88.11;;
59284;Laerm;45056;47.602;9.886;2024-01-30T08:15:46;54.59;41.96;69.05;;
59284;Laerm;45056;47.602;9.886;2024-01-30T08:18:14;47.15;41.96;62.03;;
59284;Laerm;45056;47.602;9.886;2024-01-30T08:20:42;48.63;42.65;60.32;;
59284;Laerm;45056;47.602;9.886;2024-01-30T08:23:11;49.92;42.22;59.21;;
59284;Laerm;45056;47.602;9.886;2024-01-30T08:25:39;51.87;41.82;66.86;;
59284;Laerm;45056;47.602;9.886;2024-01-30T08:28:07;47.77;41.22;56.99;;
59284;Laerm;45056;47.602;9.886;2024-01-30T08:30:35;47.53;41.38;58.30;;
59284;Laerm;45056;47.602;9.886;2024-01-30T08:33:05;47.99;42.35;58.30;;
59284;Laerm;45056;47.602;9.886;2024-01-30T08:35:33;50.63;41.61;64.66;;
59284;Laerm;45056;47.602;9.886;2024-01-30T08:38:01;48.77;42.03;56.12;;
59284;Laerm;45056;47.602;9.886;2024-01-30T08:40:31;47.61;41.53;59.99;;
59284;Laerm;45056;47.602;9.886;2024-01-30T08:42:59;49.65;41.82;62.79;;
59284;Laerm;45056;47.602;9.886;2024-01-30T08:45:27;47.67;41.53;74.45;;
59284;Laerm;45056;47.602;9.886;2024-01-30T08:47:55;48.61;41.89;61.47;;
59284;Laerm;45056;47.602;9.886;2024-01-30T08:50:23;49.51;42.71;61.58;;
59284;Laerm;45056;47.602;9.886;2024-01-30T08:52:51;50.39;42.03;63.47;;
59284;Laerm;45056;47.602;9.886;2024-01-30T08:55:19;48.34;42.03;61.75;;
59284;Laerm;45056;47.602;9.886;2024-01-30T08:57:48;46.54;41.38;60.72;;
59284;Laerm;45056;47.602;9.886;2024-01-30T09:00:17;48.46;41.75;61.09;;
59284;Laerm;45056;47.602;9.886;2024-01-30T09:02:45;49.17;41.30;58.17;;
59284;Laerm;45056;47.602;9.886;2024-01-30T09:05:13;46.51;40.71;61.76;;
59284;Laerm;45056;47.602;9.886;2024-01-30T09:07:41;49.90;39.89;66.81;;
59284;Laerm;45056;47.602;9.886;2024-01-30T09:10:10;49.74;42.47;58.03;;
59284;Laerm;45056;47.602;9.886;2024-01-30T09:12:38;49.22;42.16;59.25;;
59284;Laerm;45056;47.602;9.886;2024-01-30T09:15:09;46.88;41.53;55.01;;
59284;Laerm;45056;47.602;9.886;2024-01-30T09:17:37;47.90;40.33;64.59;;
59284;Laerm;45056;47.602;9.886;2024-01-30T09:20:06;47.71;40.80;57.90;;
59284;Laerm;45056;47.602;9.886;2024-01-30T09:22:35;48.63;42.88;61.13;;
59284;Laerm;45056;47.602;9.886;2024-01-30T09:25:04;48.62;42.22;63.78;;
59284;Laerm;45056;47.602;9.886;2024-01-30T09:27:32;48.04;40.13;59.64;;
59284;Laerm;45056;47.602;9.886;2024-01-30T09:30:00;47.10;42.29;55.71;;
59284;Laerm;45056;47.602;9.886;2024-01-30T09:32:30;48.10;41.30;58.74;;
59284;Laerm;45056;47.602;9.886;2024-01-30T09:34:58;49.67;41.89;64.85;;
59284;Laerm;45056;47.602;9.886;2024-01-30T09:37:26;48.18;42.76;59.30;;
59284;Laerm;45056;47.602;9.886;2024-01-30T09:39:54;47.31;41.14;57.18;;
59284;Laerm;45056;47.602;9.886;2024-01-30T09:42:33;49.38;40.53;62.43;;
59284;Laerm;45056;47.602;9.886;2024-01-30T09:45:02;48.72;41.75;60.28;;
59284;Laerm;45056;47.602;9.886;2024-01-30T09:47:41;49.85;41.22;64.50;;
59284;Laerm;45056;47.602;9.886;2024-01-30T09:50:12;48.72;41.22;59.35;;
59284;Laerm;45056;47.602;9.886;2024-01-30T09:52:43;46.40;40.53;53.89;;
59284;Laerm;45056;47.602;9.886;2024-01-30T09:55:12;47.31;40.80;58.26;;
59284;Laerm;45056;47.602;9.886;2024-01-30T09:57:42;48.50;41.89;56.32;;
59284;Laerm;45056;47.602;9.886;2024-01-30T10:00:13;48.04;40.33;57.13;;
59284;Laerm;45056;47.602;9.886;2024-01-30T10:02:43;49.45;40.71;59.14;;
59284;Laerm;45056;47.602;9.886;2024-01-30T10:05:19;47.86;42.88;56.36;;
59284;Laerm;45056;47.602;9.886;2024-01-30T10:07:53;46.55;41.22;57.10;;
59284;Laerm;45056;47.602;9.886;2024-01-30T10:10:22;46.63;40.43;55.36;;
59284;Laerm;45056;47.602;9.886;2024-01-30T10:12:51;47.47;41.06;54.69;;
59284;Laerm;45056;47.602;9.886;2024-01-30T10:15:19;47.43;40.53;55.85;;
59284;Laerm;45056;47.602;9.886;2024-01-30T10:17:49;49.69;41.38;62.29;;
59284;Laerm;45056;47.602;9.886;2024-01-30T10:20:17;49.19;41.06;62.35;;
59284;Laerm;45056;47.602;9.886;2024-01-30T10:22:46;48.18;41.96;60.05;;
59284;Laerm;45056;47.602;9.886;2024-01-30T10:25:15;46.96;41.22;53.30;;
59284;Laerm;45056;47.602;9.886;2024-01-30T10:27:43;47.73;42.00;59.57;;
59284;Laerm;45056;47.602;9.886;2024-01-30T10:30:12;48.76;42.35;58.82;;
59284;Laerm;45056;47.602;9.886;2024-01-30T10:32:40;47.48;42.22;57.11;;
59284;Laerm;45056;47.602;9.886;2024-01-30T10:35:09;48.54;41.89;66.84;;
59284;Laerm;45056;47.602;9.886;2024-01-30T10:37:37;48.83;42.22;63.04;;
59284;Laerm;45056;47.602;9.886;2024-01-30T10:40:13;47.70;39.81;57.68;;
59284;Laerm;45056;47.602;9.886;2024-01-30T10:42:43;49.58;40.43;62.85;;
59284;Laerm;45056;47.602;9.886;2024-01-30T10:45:14;49.47;42.03;62.35;;
59284;Laerm;45056;47.602;9.886;2024-01-30T10:47:48;47.92;40.36;70.05;;
59284;Laerm;45056;47.602;9.886;2024-01-30T10:50:19;48.11;40.98;59.51;;
59284;Laerm;45056;47.602;9.886;2024-01-30T10:52:49;47.76;41.61;61.90;;
59284;Laerm;45056;47.602;9.886;2024-01-30T10:55:18;46.77;41.14;61.01;;
59284;Laerm;45056;47.602;9.886;2024-01-30T10:57:46;47.60;41.53;58.79;;
59284;Laerm;45056;47.602;9.886;2024-01-30T11:00:16;49.16;41.89;58.77;;
59284;Laerm;45056;47.602;9.886;2024-01-30T11:02:49;53.89;42.35;66.50;;
59284;Laerm;45056;47.602;9.886;2024-01-30T11:05:25;61.56;45.77;70.54;;
59284;Laerm;45056;47.602;9.886;2024-01-30T11:07:53;48.33;40.62;57.91;;
59284;Laerm;45056;47.602;9.886;2024-01-30T11:10:25;48.76;42.16;59.10;;
59284;Laerm;45056;47.602;9.886;2024-01-30T11:12:53;51.03;41.14;64.76;;
59284;Laerm;45056;47.602;9.886;2024-01-30T11:15:21;47.49;40.03;59.25;;
59284;Laerm;45056;47.602;9.886;2024-01-30T11:17:52;49.15;41.89;68.70;;
59284;Laerm;45056;47.602;9.886;2024-01-30T11:20:21;47.43;40.03;55.79;;
59284;Laerm;45056;47.602;9.886;2024-01-30T11:22:53;47.50;40.03;56.14;;
59284;Laerm;45056;47.602;9.886;2024-01-30T11:25:24;48.86;41.61;60.12;;
59284;Laerm;45056;47.602;9.886;2024-01-30T11:27:55;47.57;41.06;56.52;;
59284;Laerm;45056;47.602;9.886;2024-01-30T11:30:25;47.62;40.80;57.74;;
59284;Laerm;45056;47.602;9.886;2024-01-30T11:33:04;48.33;41.68;59.12;;
59284;Laerm;45056;47.602;9.886;2024-01-30T11:35:34;47.43;40.71;56.46;;
59284;Laerm;45056;47.602;9.886;2024-01-30T11:38:06;46.70;41.14;56.81;;
59284;Laerm;45056;47.602;9.886;2024-01-30T11:40:37;47.27;41.46;56.27;;
59284;Laerm;45056;47.602;9.886;2024-01-30T11:43:08;47.95;42.35;56.25;;
59284;Laerm;45056;47.602;9.886;2024-01-30T11:45:36;48.01;40.89;56.90;;
59284;Laerm;45056;47.602;9.886;2024-01-30T11:48:07;48.40;41.53;57.27;;
59284;Laerm;45056;47.602;9.886;2024-01-30T11:50:39;48.43;41.82;60.06;;
59284;Laerm;45056;47.602;9.886;2024-01-30T11:53:09;51.66;40.62;66.92;;
59284;Laerm;45056;47.602;9.886;2024-01-30T11:55:38;47.62;39.46;56.29;;
59284;Laerm;45056;47.602;9.886;2024-01-30T11:58:06;47.36;39.92;56.94;;
59284;Laerm;45056;47.602;9.886;2024-01-30T12:00:34;49.30;42.16;61.58;;
59284;Laerm;45056;47.602;9.886;2024-01-30T12:03:03;49.92;41.89;62.21;;
59284;Laerm;45056;47.602;9.886;2024-01-30T12:05:33;47.34;40.98;57.31;;
59284;Laerm;45056;47.602;9.886;2024-01-30T12:08:02;48.56;40.98;63.34;;
59284;Laerm;45056;47.602;9.886;2024-01-30T12:10:32;49.30;40.23;64.52;;
59284;Laerm;45056;47.602;9.886;2024-01-30T12:13:02;50.14;41.96;61.06;;
59284;Laerm;45056;47.602;9.886;2024-01-30T12:15:30;48.63;42.22;57.53;;
59284;Laerm;45056;47.602;9.886;2024-01-30T12:18:06;48.36;40.79;60.17;;
59284;Laerm;45056;47.602;9.886;2024-01-30T12:20:34;46.81;40.89;56.38;;
59284;Laerm;45056;47.602;9.886;2024-01-30T12:23:03;47.41;39.92;58.23;;
59284;Laerm;45056;47.602;9.886;2024-01-30T12:25:33;47.15;40.98;58.90;;
59284;Laerm;45056;47.602;9.886;2024-01-30T12:28:01;48.00;40.71;56.87;;
59284;Laerm;45056;47.602;9.886;2024-01-30T12:30:30;47.15;40.89;58.21;;
59284;Laerm;45056;47.602;9.886;2024-01-30T12:32:58;47.82;39.58;58.28;;
59284;Laerm;45056;47.602;9.886;2024-01-30T12:35:26;46.61;40.62;57.03;;
59284;Laerm;45056;47.602;9.886;2024-01-30T12:37:54;49.05;41.22;61.52;;
59284;Laerm;45056;47.602;9.886;2024-01-30T12:40:23;47.91;41.30;58.51;;
59284;Laerm;45056;47.602;9.886;2024-01-30T12:42:54;45.89;40.53;62.17;;
59284;Laerm;45056;47.602;9.886;2024-01-30T12:45:22;48.77;42.88;60.40;;
59284;Laerm;45056;47.602;9.886;2024-01-30T12:47:50;48.23;42.76;59.71;;
59284;Laerm;45056;47.602;9.886;2024-01-30T12:50:19;47.28;40.98;60.64;;
59284;Laerm;45056;47.602;9.886;2024-01-30T12:52:47;48.78;43.94;59.02;;
59284;Laerm;45056;47.602;9.886;2024-01-30T12:55:16;50.06;44.58;60.22;;
59284;Laerm;45056;47.602;9.886;2024-01-30T12:57:44;47.06;42.16;56.12;;
59284;Laerm;45056;47.602;9.886;2024-01-30T13:00:14;51.55;40.23;66.83;;
59284;Laerm;45056;47.602;9.886;2024-01-30T13:02:43;47.58;41.61;56.12;;
59284;Laerm;45056;47.602;9.886;2024-01-30T13:05:12;47.16;41.06;60.88;;
59284;Laerm;45056;47.602;9.886;2024-01-30T13:07:40;49.26;41.75;61.41;;
59284;Laerm;45056;47.602;9.886;2024-01-30T13:10:08;47.76;40.80;58.24;;
59284;Laerm;45056;47.602;9.886;2024-01-30T13:12:36;47.89;41.68;57.15;;
59284;Laerm;45056;47.602;9.886;2024-01-30T13:15:06;46.62;40.43;55.15;;
59284;Laerm;45056;47.602;9.886;2024-01-30T13:17:35;48.37;41.53;58.02;;
59284;Laerm;45056;47.602;9.886;2024-01-30T13:20:05;46.77;40.03;61.08;;
59284;Laerm;45056;47.602;9.886;2024-01-30T13:22:35;47.27;41.30;59.32;;
59284;Laerm;45056;47.602;9.886;2024-01-30T13:25:05;51.23;43.19;65.15;;
59284;Laerm;45056;47.602;9.886;2024-01-30T13:27:34;47.52;42.16;56.17;;
59284;Laerm;45056;47.602;9.886;2024-01-30T13:30:02;49.24;42.03;61.57;;
59284;Laerm;45056;47.602;9.886;2024-01-30T13:32:30;50.35;42.47;61.60;;
59284;Laerm;45056;47.602;9.886;2024-01-30T13:34:59;47.81;42.03;57.71;;
59284;Laerm;45056;47.602;9.886;2024-01-30T13:37:28;46.75;41.38;55.15;;
59284;Laerm;45056;47.602;9.886;2024-01-30T13:39:56;47.67;40.62;57.29;;
59284;Laerm;45056;47.602;9.886;2024-01-30T13:42:24;47.73;41.38;57.74;;
59284;Laerm;45056;47.602;9.886;2024-01-30T13:44:52;48.37;42.41;56.30;;
59284;Laerm;45056;47.602;9.886;2024-01-30T13:47:20;48.92;41.75;58.13;;
59284;Laerm;45056;47.602;9.886;2024-01-30T13:49:49;49.14;42.76;60.91;;
59284;Laerm;45056;47.602;9.886;2024-01-30T13:52:20;48.32;41.68;57.30;;